createdAt,value
2022-11-06T00:00:20.778Z,100108.16
2022-11-06T00:02:48.414Z,100107.34
2022-11-06T00:05:33.556Z,100112.53
2022-11-06T00:08:01.364Z,100113.59
2022-11-06T00:10:33.556Z,100114.66
2022-11-06T00:13:03.763Z,100114.06
2022-11-06T00:15:31.455Z,100113.59
2022-11-06T00:17:58.990Z,100117.34
2022-11-06T00:20:26.661Z,100124.66
2022-11-06T00:22:54.148Z,100126.53
2022-11-06T00:25:24.100Z,100114.06
2022-11-06T00:27:51.597Z,100123.59
2022-11-06T00:30:21.611Z,100113.00
2022-11-06T00:32:51.358Z,100119.00
2022-11-06T00:35:18.856Z,100119.56
2022-11-06T00:37:46.357Z,100117.94
2022-11-06T00:40:14.190Z,100110.88
2022-11-06T00:42:41.701Z,100113.59
2022-11-06T00:45:10.075Z,100088.66
2022-11-06T00:47:39.943Z,100113.59
2022-11-06T00:50:10.606Z,100111.34
2022-11-06T00:52:38.120Z,100117.59
2022-11-06T00:55:06.062Z,100117.34
2022-11-06T00:57:33.659Z,100124.91
2022-11-06T01:00:03.885Z,100124.06
2022-11-06T01:02:33.775Z,100115.13
2022-11-06T01:05:01.486Z,100123.25
2022-11-06T01:07:29.267Z,100118.09
2022-11-06T01:09:59.068Z,100124.06
2022-11-06T01:12:26.585Z,100123.00
2022-11-06T01:14:54.273Z,100123.00
2022-11-06T01:17:21.784Z,100134.66
2022-11-06T01:19:49.332Z,100124.06
2022-11-06T01:22:17.043Z,100134.66
2022-11-06T01:24:44.704Z,100133.59
2022-11-06T01:27:27.920Z,100131.72
2022-11-06T01:29:56.884Z,100130.06
2022-11-06T01:32:24.429Z,100134.19
2022-11-06T01:34:52.782Z,100125.47
2022-11-06T01:37:20.360Z,100133.59
2022-11-06T01:39:50.180Z,100122.19
2022-11-06T01:42:20.689Z,100126.53
2022-11-06T01:45:16.605Z,100131.63
2022-11-06T01:47:46.921Z,100124.91
2022-11-06T01:50:17.441Z,100127.28
2022-11-06T01:52:48.238Z,100129.75
2022-11-06T01:55:25.201Z,100133.50
2022-11-06T01:57:52.938Z,100131.03
2022-11-06T02:00:21.151Z,100125.63
2022-11-06T02:02:49.367Z,100130.47
2022-11-06T02:05:18.036Z,100134.00
2022-11-06T02:07:46.244Z,100129.41
2022-11-06T02:10:13.845Z,100139.41
2022-11-06T02:12:59.524Z,100130.69
2022-11-06T02:15:45.174Z,100130.69
2022-11-06T02:18:35.789Z,100135.28
2022-11-06T02:21:42.407Z,100130.69
2022-11-06T02:24:21.819Z,100141.53
2022-11-06T02:27:28.713Z,100141.53
2022-11-06T02:30:12.205Z,100141.53
2022-11-06T02:32:45.272Z,100147.97
2022-11-06T02:35:31.034Z,100142.00
2022-11-06T02:38:12.607Z,100158.22
2022-11-06T02:40:47.335Z,100147.88
2022-11-06T02:43:17.581Z,100165.09
2022-11-06T02:45:52.349Z,100158.47
2022-11-06T02:48:25.168Z,100168.00
2022-11-06T02:50:55.784Z,100163.19
2022-11-06T02:53:27.077Z,100171.31
2022-11-06T02:56:06.374Z,100152.03
2022-11-06T02:58:47.909Z,100172.34
2022-11-06T03:01:35.393Z,100175.06
2022-11-06T03:04:12.037Z,100172.16
2022-11-06T03:06:46.906Z,100174.84
2022-11-06T03:09:19.716Z,100180.03
2022-11-06T03:11:58.516Z,100179.44
2022-11-06T03:14:54.432Z,100191.09
2022-11-06T03:17:30.453Z,100186.50
2022-11-06T03:20:11.408Z,100186.28
2022-11-06T03:22:51.473Z,100190.88
2022-11-06T03:25:32.385Z,100199.00
2022-11-06T03:28:06.711Z,100200.63
2022-11-06T03:30:38.729Z,100195.22
2022-11-06T03:33:25.949Z,100199.81
2022-11-06T03:36:06.938Z,100198.75
2022-11-06T03:38:52.371Z,100208.75
2022-11-06T03:41:34.813Z,100212.28
2022-11-06T03:44:04.248Z,100216.66
2022-11-06T03:46:34.037Z,100217.94
2022-11-06T03:49:06.301Z,100216.06
2022-11-06T03:52:11.967Z,100211.13
2022-11-06T03:55:19.724Z,100222.31
2022-11-06T03:57:56.225Z,100221.25
2022-11-06T04:00:23.812Z,100217.72
2022-11-06T04:03:05.764Z,100214.75
2022-11-06T04:05:51.528Z,100219.59
2022-11-06T04:08:53.497Z,100223.94
2022-11-06T04:11:43.036Z,100223.94
2022-11-06T04:14:15.559Z,100199.22
2022-11-06T04:16:48.159Z,100225.59
2022-11-06T04:19:21.171Z,100226.41
2022-11-06T04:22:03.077Z,100226.19
2022-11-06T04:24:54.316Z,100221.81
2022-11-06T04:27:30.282Z,100227.00
2022-11-06T04:30:12.459Z,100225.59
2022-11-06T04:33:00.359Z,100225.59
2022-11-06T04:35:40.041Z,100216.41
2022-11-06T04:38:22.745Z,100221.59
2022-11-06T04:41:15.862Z,100223.47
2022-11-06T04:43:58.369Z,100196.63
2022-11-06T04:46:34.000Z,100217.22
2022-11-06T04:49:03.849Z,100229.72
2022-11-06T04:51:36.324Z,100220.75
2022-11-06T04:54:04.248Z,100221.81
2022-11-06T04:56:35.579Z,100224.53
2022-11-06T04:59:05.889Z,100222.06
2022-11-06T05:01:33.963Z,100224.88
2022-11-06T05:04:01.684Z,100226.50
2022-11-06T05:06:31.427Z,100235.00
2022-11-06T05:08:59.288Z,100219.22
2022-11-06T05:11:26.801Z,100225.69
2022-11-06T05:13:54.694Z,100231.34
2022-11-06T05:16:22.487Z,100231.34
2022-11-06T05:18:50.071Z,100229.72
2022-11-06T05:21:37.351Z,100235.12
2022-11-06T05:24:05.232Z,100223.94
2022-11-06T05:26:32.830Z,100235.38
2022-11-06T05:29:00.393Z,100240.78
2022-11-06T05:31:28.281Z,100244.56
2022-11-06T05:33:55.886Z,100243.38
2022-11-06T05:36:23.445Z,100245.03
2022-11-06T05:38:51.472Z,100251.03
2022-11-06T05:41:18.961Z,100252.09
2022-11-06T05:43:49.091Z,100259.75
2022-11-06T05:46:42.907Z,100256.44
2022-11-06T05:49:09.939Z,100271.41
2022-11-06T05:51:37.479Z,100267.87
2022-11-06T05:54:05.366Z,100268.69
2022-11-06T05:56:32.872Z,100275.16
2022-11-06T05:59:02.683Z,100271.41
2022-11-06T06:01:30.508Z,100276.47
2022-11-06T06:03:58.138Z,100280.31
2022-11-06T06:06:26.173Z,100285.63
2022-11-06T06:08:53.710Z,100292.34
2022-11-06T06:11:21.386Z,100291.19
2022-11-06T06:13:49.208Z,100295.53
2022-11-06T06:16:16.932Z,100290.59
2022-11-06T06:18:44.442Z,100297.41
2022-11-06T06:21:11.954Z,100297.66
2022-11-06T06:23:39.440Z,100289.44
2022-11-06T06:26:07.240Z,100310.72
2022-11-06T06:28:37.646Z,100311.31
2022-11-06T06:31:08.467Z,100315.09
2022-11-06T06:33:36.031Z,100317.56
2022-11-06T06:36:08.073Z,100318.84
2022-11-06T06:38:35.577Z,100316.72
2022-11-06T06:41:05.052Z,100323.56
2022-11-06T06:43:32.740Z,100331.69
2022-11-06T06:46:01.424Z,100334.63
2022-11-06T06:48:29.493Z,100340.62
2022-11-06T06:51:04.806Z,100348.75
2022-11-06T06:53:32.450Z,100345.22
2022-11-06T06:56:01.719Z,100348.75
2022-11-06T06:58:30.812Z,100352.53
2022-11-06T07:01:06.619Z,100348.75
2022-11-06T07:03:34.325Z,100350.66
2022-11-06T07:06:02.170Z,100357.38
2022-11-06T07:08:30.145Z,100346.53
2022-11-06T07:11:06.578Z,100349.00
2022-11-06T07:13:36.083Z,100353.59
2022-11-06T07:16:09.006Z,100349.59
2022-11-06T07:18:38.723Z,100357.94
2022-11-06T07:21:11.770Z,100358.78
2022-11-06T07:23:39.672Z,100366.66
2022-11-06T07:26:10.697Z,100358.31
2022-11-06T07:28:38.266Z,100363.72
2022-11-06T07:31:09.488Z,100360.41
2022-11-06T07:33:39.804Z,100372.91
2022-11-06T07:36:10.651Z,100369.97
2022-11-06T07:38:39.293Z,100370.78
2022-11-06T07:41:15.768Z,100371.59
2022-11-06T07:43:44.348Z,100369.97
2022-11-06T07:46:13.818Z,100371.59
2022-11-06T07:48:41.479Z,100374.91
2022-11-06T07:51:12.086Z,100368.31
2022-11-06T07:53:39.690Z,100380.44
2022-11-06T07:56:08.667Z,100383.28
2022-11-06T07:58:36.416Z,100386.81
2022-11-06T08:01:04.588Z,100384.00
2022-11-06T08:03:32.665Z,100379.75
2022-11-06T08:06:00.633Z,100376.56
2022-11-06T08:08:29.210Z,100376.09
2022-11-06T08:10:56.764Z,100382.09
2022-11-06T08:13:25.996Z,100387.06
2022-11-06T08:15:53.676Z,100383.88
2022-11-06T08:18:23.997Z,100381.16
2022-11-06T08:20:53.938Z,100379.53
2022-11-06T08:23:21.525Z,100385.41
2022-11-06T08:25:49.036Z,100375.59
2022-11-06T08:28:18.996Z,100391.53
2022-11-06T08:30:46.530Z,100387.75
2022-11-06T08:33:14.056Z,100391.28
2022-11-06T08:35:43.694Z,100388.81
2022-11-06T08:38:13.716Z,100392.34
2022-11-06T08:40:41.574Z,100381.75
2022-11-06T08:43:11.549Z,100383.16
2022-11-06T08:45:44.299Z,100394.00
2022-11-06T08:48:12.585Z,100386.44
2022-11-06T08:50:41.894Z,100390.22
2022-11-06T08:53:09.974Z,100385.19
2022-11-06T08:55:39.817Z,100383.88
2022-11-06T08:58:08.202Z,100381.75
2022-11-06T09:00:36.630Z,100395.06
2022-11-06T09:03:11.157Z,100374.56
2022-11-06T09:05:43.677Z,100396.00
2022-11-06T09:08:12.233Z,100392.81
2022-11-06T09:10:41.356Z,100397.28
2022-11-06T09:13:08.913Z,100395.38
2022-11-06T09:15:39.404Z,100400.13
2022-11-06T09:18:08.190Z,100386.56
2022-11-06T09:20:38.162Z,100385.03
2022-11-06T09:23:07.726Z,100390.66
2022-11-06T09:25:35.568Z,100379.41
2022-11-06T09:28:03.177Z,100380.75
2022-11-06T09:30:32.271Z,100389.06
2022-11-06T09:33:12.261Z,100392.00
2022-11-06T09:35:43.106Z,100390.44
2022-11-06T09:38:15.464Z,100385.69
2022-11-06T09:40:55.673Z,100384.22
2022-11-06T09:46:30.582Z,100385.63
2022-11-06T09:49:04.551Z,100381.97
2022-11-06T09:51:43.178Z,100381.22
2022-11-06T09:54:18.751Z,100386.00
2022-11-06T09:56:51.216Z,100382.22
2022-11-06T09:59:21.781Z,100368.47
2022-11-06T10:01:54.470Z,100377.84
2022-11-06T10:04:42.899Z,100369.66
2022-11-06T10:07:26.259Z,100363.91
2022-11-06T10:09:54.094Z,100372.03
2022-11-06T10:12:34.327Z,100373.34
2022-11-06T10:15:14.508Z,100362.91
2022-11-06T10:18:06.425Z,100363.16
2022-11-06T10:20:47.718Z,100340.41
2022-11-06T10:23:52.226Z,100369.59
2022-11-06T10:26:22.956Z,100359.34
2022-11-06T10:29:09.077Z,100363.88
2022-11-06T10:32:19.579Z,100365.03
2022-11-06T10:34:58.349Z,100363.06
2022-11-06T10:37:32.220Z,100362.81
2022-11-06T10:40:01.285Z,100359.72
2022-11-06T10:42:38.467Z,100364.06
2022-11-06T10:45:29.381Z,100356.06
2022-11-06T10:48:03.507Z,100355.00
2022-11-06T10:50:45.342Z,100361.75
2022-11-06T10:53:31.170Z,100352.59
2022-11-06T10:56:21.368Z,100347.09
2022-11-06T10:58:49.290Z,100342.22
2022-11-06T11:01:19.056Z,100344.06
2022-11-06T11:03:48.338Z,100340.84
2022-11-06T11:06:16.060Z,100330.38
2022-11-06T11:08:46.279Z,100343.41
2022-11-06T11:11:19.190Z,100336.16
2022-11-06T11:13:49.945Z,100332.28
2022-11-06T11:16:35.937Z,100331.09
2022-11-06T11:19:44.000Z,100329.63
2022-11-06T11:22:17.484Z,100329.63
2022-11-06T11:25:07.900Z,100331.78
2022-11-06T11:27:44.253Z,100330.12
2022-11-06T11:30:26.432Z,100331.78
2022-11-06T11:32:55.246Z,100330.88
2022-11-06T11:35:29.438Z,100333.34
2022-11-06T11:38:17.006Z,100333.84
2022-11-06T11:40:45.110Z,100332.78
2022-11-06T11:43:26.201Z,100329.06
2022-11-06T11:46:06.448Z,100326.75
2022-11-06T11:48:53.237Z,100321.66
2022-11-06T11:51:33.294Z,100324.44
2022-11-06T11:54:17.484Z,100319.16
2022-11-06T11:57:04.666Z,100315.53
2022-11-06T11:59:35.930Z,100325.53
2022-11-06T12:02:15.952Z,100323.12
2022-11-06T12:04:47.827Z,100326.59
2022-11-06T12:07:39.812Z,100334.63
2022-11-06T12:10:29.033Z,100327.97
2022-11-06T12:13:01.360Z,100330.19
2022-11-06T12:16:01.489Z,100324.28
2022-11-06T12:18:38.429Z,100322.03
2022-11-06T12:21:16.655Z,100329.00
2022-11-06T12:23:56.693Z,100319.84
2022-11-06T12:26:33.116Z,100318.22
2022-11-06T12:29:16.306Z,100326.41
2022-11-06T12:31:59.178Z,100331.13
2022-11-06T12:35:09.624Z,100329.47
2022-11-06T12:37:52.534Z,100325.94
2022-11-06T12:40:47.928Z,100322.91
2022-11-06T12:43:30.813Z,100330.38
2022-11-06T12:46:16.439Z,100300.84
2022-11-06T12:48:47.921Z,100320.69
2022-11-06T12:51:43.194Z,100323.25
2022-11-06T12:54:19.488Z,100330.59
2022-11-06T12:56:58.936Z,100335.37
2022-11-06T12:59:38.684Z,100337.47
2022-11-06T13:02:21.010Z,100335.00
2022-11-06T13:05:00.547Z,100327.34
2022-11-06T13:08:12.523Z,100328.16
2022-11-06T13:11:26.340Z,100335.81
2022-11-06T13:14:03.841Z,100331.19
2022-11-06T13:16:37.251Z,100329.50
2022-11-06T13:19:19.825Z,100330.31
2022-11-06T13:21:53.117Z,100327.53
2022-11-06T13:24:47.205Z,100332.16
2022-11-06T13:27:24.248Z,100332.47
2022-11-06T13:29:52.949Z,100322.66
2022-11-06T13:32:25.388Z,100327.84
2022-11-06T13:34:57.224Z,100330.22
2022-11-06T13:37:43.920Z,100326.09
2022-11-06T13:40:26.476Z,100319.31
2022-11-06T13:43:27.950Z,100320.72
2022-11-06T13:46:26.237Z,100327.22
2022-11-06T13:49:06.420Z,100318.81
2022-11-06T13:52:03.202Z,100329.44
2022-11-06T13:54:49.001Z,100320.72
2022-11-06T13:57:31.735Z,100316.72
2022-11-06T14:00:20.969Z,100307.28
2022-11-06T14:03:06.672Z,100305.19
2022-11-06T14:06:04.128Z,100305.47
2022-11-06T14:08:40.231Z,100298.19
2022-11-06T14:11:20.750Z,100294.91
2022-11-06T14:14:07.553Z,100300.88
2022-11-06T14:16:40.407Z,100304.87
2022-11-06T14:19:14.107Z,100299.13
2022-11-06T14:21:46.221Z,100300.38
2022-11-06T14:24:34.058Z,100301.72
2022-11-06T14:27:06.806Z,100292.41
2022-11-06T14:29:34.303Z,100295.59
2022-11-06T14:32:24.073Z,100299.78
2022-11-06T14:34:54.391Z,100295.25
2022-11-06T14:37:30.976Z,100304.91
2022-11-06T14:39:58.915Z,100295.81
2022-11-06T14:42:43.256Z,100308.44
2022-11-06T14:45:18.419Z,100303.94
2022-11-06T14:47:49.949Z,100303.78
2022-11-06T14:50:20.299Z,100304.53
2022-11-06T14:53:02.505Z,100301.47
2022-11-06T14:55:41.200Z,100302.53
2022-11-06T14:58:31.718Z,100307.72
2022-11-06T15:01:11.317Z,100310.69
2022-11-06T15:03:57.425Z,100316.56
2022-11-06T15:06:30.799Z,100314.19
2022-11-06T15:09:08.874Z,100323.22
2022-11-06T15:11:47.468Z,100322.37
2022-11-06T15:14:15.584Z,100325.66
2022-11-06T15:16:51.999Z,100329.94
2022-11-06T15:19:30.617Z,100334.88
2022-11-06T15:22:16.140Z,100312.88
2022-11-06T15:24:52.962Z,100333.00
2022-11-06T15:27:25.079Z,100333.59
2022-11-06T15:29:58.547Z,100330.44
2022-11-06T15:32:30.696Z,100331.66
2022-11-06T15:35:09.282Z,100334.12
2022-11-06T15:37:41.826Z,100336.16
2022-11-06T15:40:39.892Z,100329.22
2022-11-06T15:43:29.265Z,100329.66
2022-11-06T15:46:17.893Z,100325.91
2022-11-06T15:48:49.337Z,100328.37
2022-11-06T15:51:25.903Z,100317.44
2022-11-06T15:53:54.346Z,100334.88
2022-11-06T15:56:32.775Z,100337.22
2022-11-06T15:59:15.096Z,100319.88
2022-11-06T16:01:52.504Z,100335.47
2022-11-06T16:04:26.517Z,100333.56
2022-11-06T16:06:55.580Z,100331.69
2022-11-06T16:09:26.441Z,100334.63
2022-11-06T16:11:57.051Z,100338.16
2022-11-06T16:14:27.965Z,100337.56
2022-11-06T16:17:09.481Z,100336.72
2022-11-06T16:19:40.539Z,100338.63
2022-11-06T16:22:13.266Z,100339.31
2022-11-06T16:24:54.864Z,100332.03
2022-11-06T16:27:28.111Z,100338.63
2022-11-06T16:30:04.510Z,100330.62
2022-11-06T16:32:39.269Z,100332.63
2022-11-06T16:35:39.440Z,100334.41
2022-11-06T16:38:39.035Z,100341.34
2022-11-06T16:41:07.861Z,100338.53
2022-11-06T16:43:35.876Z,100339.69
2022-11-06T16:46:08.131Z,100338.16
2022-11-06T16:48:38.291Z,100337.44
2022-11-06T16:51:15.621Z,100328.50
2022-11-06T16:53:55.227Z,100342.16
2022-11-06T16:56:25.682Z,100343.22
2022-11-06T16:58:58.594Z,100340.62
2022-11-06T17:01:27.903Z,100339.69
2022-11-06T17:04:03.916Z,100335.44
2022-11-06T17:06:34.243Z,100333.09
2022-11-06T17:09:10.204Z,100334.28
2022-11-06T17:11:38.772Z,100334.63
2022-11-06T17:14:18.363Z,100347.22
2022-11-06T17:16:54.521Z,100346.38
2022-11-06T17:19:26.041Z,100343.41
2022-11-06T17:21:56.405Z,100339.97
2022-11-06T17:24:39.298Z,100337.62
2022-11-06T17:27:07.730Z,100339.38
2022-11-06T17:29:36.990Z,100348.63
2022-11-06T17:32:05.203Z,100352.84
2022-11-06T17:34:32.830Z,100345.66
2022-11-06T17:37:01.796Z,100347.03
2022-11-06T17:39:29.502Z,100352.25
2022-11-06T17:41:57.329Z,100342.37
2022-11-06T17:44:25.017Z,100355.28
2022-11-06T17:46:52.553Z,100363.03
2022-11-06T17:49:20.132Z,100360.44
2022-11-06T17:51:53.301Z,100358.59
2022-11-06T17:54:25.423Z,100346.00
2022-11-06T17:56:54.601Z,100347.38
2022-11-06T17:59:24.794Z,100361.81
2022-11-06T18:01:53.018Z,100362.69
2022-11-06T18:04:22.803Z,100361.72
2022-11-06T18:06:52.130Z,100374.03
2022-11-06T18:09:20.913Z,100367.62
2022-11-06T18:11:51.163Z,100372.91
2022-11-06T18:14:20.319Z,100360.94
2022-11-06T18:16:48.176Z,100365.50
2022-11-06T18:19:18.163Z,100380.28
2022-11-06T18:21:46.125Z,100377.81
2022-11-06T18:24:13.844Z,100366.41
2022-11-06T18:26:41.431Z,100372.84
2022-11-06T18:29:10.078Z,100379.09
2022-11-06T18:31:37.656Z,100376.22
2022-11-06T18:34:06.332Z,100377.06
2022-11-06T18:36:36.497Z,100374.19
2022-11-06T18:39:06.346Z,100381.47
2022-11-06T18:41:34.540Z,100379.00
2022-11-06T18:44:02.767Z,100379.81
2022-11-06T18:46:30.833Z,100382.91
2022-11-06T18:48:58.854Z,100389.06
2022-11-06T18:51:35.608Z,100391.09
2022-11-06T18:54:07.938Z,100388.41
2022-11-06T18:56:38.960Z,100385.31
2022-11-06T18:59:09.013Z,100384.72
2022-11-06T19:01:36.787Z,100387.13
2022-11-06T19:04:05.638Z,100391.84
2022-11-06T19:06:33.930Z,100388.50
2022-11-06T19:09:01.623Z,100388.44
2022-11-06T19:11:31.580Z,100391.06
2022-11-06T19:13:59.137Z,100387.91
2022-11-06T19:16:26.700Z,100397.81
2022-11-06T19:21:30.831Z,100396.03
2022-11-06T19:24:03.894Z,100385.97
2022-11-06T19:26:33.053Z,100385.03
2022-11-06T19:29:01.369Z,100393.34
2022-11-06T19:31:30.242Z,100387.91
2022-11-06T19:33:59.873Z,100383.13
2022-11-06T19:36:28.094Z,100384.53
2022-11-06T19:38:57.352Z,100377.47
2022-11-06T19:41:26.533Z,100380.41
2022-11-06T19:43:57.198Z,100380.41
2022-11-06T19:46:33.999Z,100380.88
2022-11-06T19:49:07.118Z,100383.16
2022-11-06T19:51:37.511Z,100378.00
2022-11-06T19:54:06.229Z,100382.19
2022-11-06T19:56:35.503Z,100383.13
2022-11-06T19:59:03.278Z,100378.63
2022-11-06T20:01:33.813Z,100387.00
2022-11-06T20:04:01.820Z,100383.78
2022-11-06T20:06:29.472Z,100381.75
2022-11-06T20:08:57.079Z,100384.31
2022-11-06T20:11:24.779Z,100380.81
2022-11-06T20:13:52.792Z,100379.00
2022-11-06T20:16:21.352Z,100384.09
2022-11-06T20:18:57.937Z,100389.13
2022-11-06T20:21:28.191Z,100393.31
2022-11-06T20:24:01.005Z,100398.72
2022-11-06T20:26:29.113Z,100386.88
2022-11-06T20:28:56.717Z,100392.87
2022-11-06T20:31:26.931Z,100400.38
2022-11-06T20:33:57.628Z,100395.81
2022-11-06T20:36:28.192Z,100389.97
2022-11-06T20:38:59.082Z,100373.31
2022-11-06T20:41:28.730Z,100400.91
2022-11-06T20:44:00.109Z,100401.91
2022-11-06T20:46:27.768Z,100404.38
2022-11-06T20:48:55.920Z,100420.13
2022-11-06T20:51:26.557Z,100428.25
2022-11-06T20:53:54.986Z,100424.94
2022-11-06T20:56:25.487Z,100409.84
2022-11-06T20:58:58.056Z,100425.81
2022-11-06T21:01:30.554Z,100417.56
2022-11-06T21:03:58.754Z,100413.06
2022-11-06T21:06:31.337Z,100421.41
2022-11-06T21:09:01.295Z,100409.25
2022-11-06T21:11:30.923Z,100413.03
2022-11-06T21:13:58.683Z,100414.72
2022-11-06T21:16:29.437Z,100407.28
2022-11-06T21:18:57.722Z,100421.00
2022-11-06T21:21:29.347Z,100417.31
2022-11-06T21:23:57.308Z,100409.25
2022-11-06T21:26:29.434Z,100420.06
2022-11-06T21:28:57.630Z,100329.13
2022-11-06T21:31:28.329Z,100415.94
2022-11-06T21:33:58.762Z,100415.09
2022-11-06T21:36:37.960Z,100415.09
2022-11-06T21:39:09.669Z,100415.72
2022-11-06T21:41:38.782Z,100422.75
2022-11-06T21:44:07.730Z,100419.84
2022-11-06T21:46:35.805Z,100414.44
2022-11-06T21:49:04.090Z,100417.13
2022-11-06T21:51:33.599Z,100420.06
2022-11-06T21:54:21.427Z,100420.06
2022-11-06T21:56:50.780Z,100421.72
2022-11-06T21:59:26.817Z,100425.88
2022-11-06T22:01:55.259Z,100422.78
2022-11-06T22:04:25.602Z,100426.13
2022-11-06T22:06:54.347Z,100425.72
2022-11-06T22:09:25.348Z,100429.69
2022-11-06T22:11:53.516Z,100431.38
2022-11-06T22:14:21.039Z,100439.28
2022-11-06T22:16:53.330Z,100441.97
2022-11-06T22:19:20.842Z,100440.31
2022-11-06T22:21:49.557Z,100442.84
2022-11-06T22:24:17.076Z,100412.81
2022-11-06T22:26:46.848Z,100437.88
2022-11-06T22:29:15.588Z,100436.00
2022-11-06T22:31:43.219Z,100441.56
2022-11-06T22:34:13.879Z,100444.91
2022-11-06T22:36:41.984Z,100442.41
2022-11-06T22:39:12.103Z,100438.66
2022-11-06T22:41:40.083Z,100428.25
2022-11-06T22:44:08.264Z,100428.25
2022-11-06T22:46:36.053Z,100429.69
2022-11-06T22:49:05.019Z,100434.44
2022-11-06T22:51:33.788Z,100433.56
2022-11-06T22:54:03.699Z,100433.53
2022-11-06T22:56:32.585Z,100437.63
2022-11-06T22:59:10.109Z,100430.91
2022-11-06T23:01:42.431Z,100435.84
2022-11-06T23:04:15.026Z,100410.72
2022-11-06T23:06:43.944Z,100424.28
2022-11-06T23:09:11.633Z,100418.16
2022-11-06T23:11:40.193Z,100431.38
2022-11-06T23:14:09.860Z,100420.13
2022-11-06T23:16:57.161Z,100425.88
2022-11-06T23:19:25.522Z,100426.03
2022-11-06T23:22:13.475Z,100425.12
2022-11-06T23:24:43.035Z,100421.97
2022-11-06T23:27:13.700Z,100425.66
2022-11-06T23:29:41.345Z,100426.06
2022-11-06T23:32:09.071Z,100435.59
2022-11-06T23:34:36.766Z,100434.78
2022-11-06T23:37:04.523Z,100440.31
2022-11-06T23:39:32.088Z,100441.53
2022-11-06T23:42:01.689Z,100437.31
2022-11-06T23:44:46.836Z,100438.75
2022-11-06T23:47:14.329Z,100440.16
2022-11-06T23:49:41.863Z,100438.47
2022-11-06T23:52:09.361Z,100437.00
2022-11-06T23:54:36.922Z,100444.47
2022-11-06T23:57:04.478Z,100426.38
2022-11-06T23:59:36.832Z,100439.91
